INDIA1 VIDP-EHAM
Flight info
| Callsign | INDIA1 |
|---|---|
| Flight time | N/A |
| Altitude | 34000 |
| Route | DUDU7E DUDUM A474 NIKOT Q5 UUD J61 LAXOM L639 RASKI N881 KIPOL L444 TOLDA M628 TULBU G652 TOKRA DCT MEDPO DCT ITULU M440 KSA M321 IVONU Z710 SOKOP V166 GAS G662 HIL N697 RUKET L550 NOVPA J981 DATOK L550 GENIV L324 TEZAK N128 OTHON UN128 RDS UL609 MES UG18 GIKAS UN133 PEREN UL863 EVIVI L863 OKANA DCT TONDO DCT GOTAR DCT LIMRA DCT LAMSI L604 RUDNO DCT SULUS L604 RELBI L602 RKN |
| Aircraft | B77W/H-SADE1E2E3FGHIJ2J3J4J5J6J7M1M3P1P2P3RUWXYZ/LB1D1 |
Departure
| Time | N/A |
|---|---|
| Airport | Indira Gandhi International Airport (VIDP) |
Arrival
| Time | 2026-04-28 17:39 |
|---|---|
| Airport | Amsterdam Airport Schiphol (EHAM) |
| Time | Latitude | Longitude | Altitude | Speed | Heading |
|---|---|---|---|---|---|
| 2026-04-28 15:41 | 43.77755 | 21.62351 | 38057 ft | 447 kts | 323° |
| 2026-04-28 15:42 | 43.82780 | 21.57569 | 38040 ft | 445 kts | 323° |
| 2026-04-28 15:42 | 43.87871 | 21.52711 | 38055 ft | 444 kts | 323° |
| 2026-04-28 15:43 | 43.92953 | 21.47851 | 38058 ft | 443 kts | 323° |
| 2026-04-28 15:43 | 43.97994 | 21.43019 | 38056 ft | 444 kts | 322° |
| 2026-04-28 15:44 | 44.03059 | 21.38156 | 38069 ft | 444 kts | 322° |
| 2026-04-28 15:44 | 44.08153 | 21.33255 | 38070 ft | 444 kts | 322° |
| 2026-04-28 15:45 | 44.13227 | 21.28359 | 38066 ft | 444 kts | 322° |
| 2026-04-28 15:45 | 44.18304 | 21.23446 | 38067 ft | 444 kts | 322° |
| 2026-04-28 15:46 | 44.23378 | 21.18536 | 38071 ft | 444 kts | 322° |
| 2026-04-28 15:46 | 44.28450 | 21.13612 | 38062 ft | 444 kts | 322° |
| 2026-04-28 15:47 | 44.33518 | 21.08683 | 38070 ft | 444 kts | 322° |
| 2026-04-28 15:47 | 44.38586 | 21.03742 | 38072 ft | 443 kts | 322° |
| 2026-04-28 15:48 | 44.43639 | 20.98806 | 38068 ft | 443 kts | 322° |
| 2026-04-28 15:48 | 44.48656 | 20.93889 | 38083 ft | 443 kts | 322° |
| 2026-04-28 15:49 | 44.53705 | 20.88930 | 38081 ft | 443 kts | 322° |
| 2026-04-28 15:49 | 44.58751 | 20.83967 | 38084 ft | 443 kts | 322° |
| 2026-04-28 15:50 | 44.63795 | 20.78996 | 38087 ft | 443 kts | 322° |
| 2026-04-28 15:50 | 44.68835 | 20.74020 | 38074 ft | 443 kts | 322° |
| 2026-04-28 15:51 | 44.73872 | 20.69034 | 38100 ft | 443 kts | 322° |
| 2026-04-28 15:51 | 44.78910 | 20.64038 | 38104 ft | 442 kts | 322° |
| 2026-04-28 15:52 | 44.83935 | 20.59044 | 38101 ft | 442 kts | 322° |
| 2026-04-28 15:52 | 44.88928 | 20.54070 | 38096 ft | 442 kts | 322° |
| 2026-04-28 15:53 | 44.93951 | 20.49055 | 38102 ft | 442 kts | 322° |
| 2026-04-28 15:53 | 44.98961 | 20.44042 | 38099 ft | 441 kts | 322° |
| 2026-04-28 15:54 | 45.03978 | 20.39012 | 38102 ft | 441 kts | 321° |
| 2026-04-28 15:54 | 45.08943 | 20.34022 | 38100 ft | 441 kts | 321° |
| 2026-04-28 15:55 | 45.13931 | 20.28998 | 38104 ft | 440 kts | 321° |
| 2026-04-28 15:55 | 45.16446 | 20.26459 | 37466 ft | 443 kts | 324° |
| 2026-04-28 15:55 | 45.18966 | 20.23914 | 37709 ft | 446 kts | 324° |
| 2026-04-28 15:56 | 45.21498 | 20.21354 | 37847 ft | 451 kts | 324° |
| 2026-04-28 15:56 | 45.24068 | 20.18753 | 37931 ft | 457 kts | 324° |
| 2026-04-28 15:56 | 45.29313 | 20.13435 | 38005 ft | 470 kts | 324° |
| 2026-04-28 15:57 | 45.34708 | 20.07953 | 38014 ft | 483 kts | 324° |
| 2026-04-28 15:57 | 45.40232 | 20.02325 | 38012 ft | 493 kts | 324° |
| 2026-04-28 15:58 | 45.45852 | 19.96585 | 38012 ft | 501 kts | 324° |
| 2026-04-28 15:58 | 45.51556 | 19.90745 | 38009 ft | 507 kts | 324° |
| 2026-04-28 15:59 | 45.56333 | 19.85843 | 38002 ft | 509 kts | 324° |
| 2026-04-28 15:59 | 45.63029 | 19.78954 | 38001 ft | 511 kts | 324° |
| 2026-04-28 16:00 | 45.68792 | 19.73008 | 37999 ft | 510 kts | 324° |
| 2026-04-28 16:00 | 45.74544 | 19.67057 | 38000 ft | 509 kts | 323° |
| 2026-04-28 16:01 | 45.80276 | 19.61112 | 37999 ft | 507 kts | 323° |
| 2026-04-28 16:01 | 45.85978 | 19.55182 | 38000 ft | 506 kts | 323° |
| 2026-04-28 16:02 | 45.91676 | 19.49240 | 38000 ft | 505 kts | 323° |
| 2026-04-28 16:02 | 45.97316 | 19.43345 | 38001 ft | 504 kts | 323° |
| 2026-04-28 16:03 | 46.02772 | 19.37039 | 38001 ft | 503 kts | 313° |
| 2026-04-28 16:03 | 46.06940 | 19.28995 | 38000 ft | 502 kts | 298° |
| 2026-04-28 16:04 | 46.09912 | 19.19901 | 38002 ft | 502 kts | 294° |
| 2026-04-28 16:04 | 46.12753 | 19.10703 | 38002 ft | 503 kts | 294° |
| 2026-04-28 16:05 | 46.15636 | 19.01490 | 38002 ft | 503 kts | 294° |
| 2026-04-28 16:05 | 46.18547 | 18.92309 | 38002 ft | 504 kts | 294° |
| 2026-04-28 16:06 | 46.21470 | 18.83105 | 38001 ft | 504 kts | 294° |
| 2026-04-28 16:06 | 46.24383 | 18.73894 | 38001 ft | 504 kts | 294° |
| 2026-04-28 16:07 | 46.27290 | 18.64660 | 38001 ft | 504 kts | 294° |
| 2026-04-28 16:08 | 46.31612 | 18.50863 | 38001 ft | 504 kts | 294° |
| 2026-04-28 16:08 | 46.34498 | 18.41610 | 38001 ft | 504 kts | 294° |
| 2026-04-28 16:09 | 46.38811 | 18.27717 | 38001 ft | 504 kts | 294° |
| 2026-04-28 16:10 | 46.43106 | 18.13802 | 38001 ft | 504 kts | 294° |
| 2026-04-28 16:10 | 46.47363 | 17.99939 | 38001 ft | 504 kts | 294° |
| 2026-04-28 16:11 | 46.53041 | 17.81327 | 38001 ft | 504 kts | 293° |
| 2026-04-28 16:12 | 46.56796 | 17.68940 | 38002 ft | 504 kts | 293° |
| 2026-04-28 16:13 | 46.61473 | 17.53428 | 38002 ft | 504 kts | 293° |
| 2026-04-28 16:14 | 46.67074 | 17.34726 | 38001 ft | 504 kts | 293° |
| 2026-04-28 16:15 | 46.72171 | 17.17581 | 38001 ft | 504 kts | 293° |
| 2026-04-28 16:15 | 46.74946 | 17.08195 | 38002 ft | 504 kts | 293° |
| 2026-04-28 16:16 | 46.79092 | 16.94108 | 38001 ft | 504 kts | 293° |
| 2026-04-28 16:17 | 46.83221 | 16.79998 | 38002 ft | 504 kts | 292° |
| 2026-04-28 16:17 | 46.85948 | 16.70634 | 38000 ft | 504 kts | 292° |
| 2026-04-28 16:18 | 46.88682 | 16.61208 | 38001 ft | 504 kts | 292° |
| 2026-04-28 16:18 | 46.91408 | 16.51775 | 38001 ft | 504 kts | 292° |
| 2026-04-28 16:19 | 46.94128 | 16.42328 | 38002 ft | 504 kts | 292° |
| 2026-04-28 16:19 | 46.96841 | 16.32870 | 38001 ft | 504 kts | 292° |
| 2026-04-28 16:20 | 46.99741 | 16.23535 | 38004 ft | 504 kts | 298° |
| 2026-04-28 16:20 | 47.03622 | 16.14981 | 38002 ft | 504 kts | 307° |
| 2026-04-28 16:21 | 47.07959 | 16.06883 | 38002 ft | 504 kts | 308° |
| 2026-04-28 16:21 | 47.12269 | 15.98854 | 38003 ft | 504 kts | 308° |
| 2026-04-28 16:22 | 47.16559 | 15.90741 | 38001 ft | 504 kts | 307° |
| 2026-04-28 16:22 | 47.20857 | 15.82533 | 38002 ft | 504 kts | 307° |
| 2026-04-28 16:23 | 47.25132 | 15.74339 | 38002 ft | 505 kts | 307° |
| 2026-04-28 16:23 | 47.29401 | 15.66134 | 37999 ft | 505 kts | 307° |
| 2026-04-28 16:24 | 47.33666 | 15.57918 | 38002 ft | 504 kts | 307° |
| 2026-04-28 16:24 | 47.37923 | 15.49694 | 37999 ft | 505 kts | 307° |
| 2026-04-28 16:25 | 47.42178 | 15.41446 | 37999 ft | 505 kts | 307° |
| 2026-04-28 16:25 | 47.46427 | 15.33188 | 38000 ft | 505 kts | 307° |
| 2026-04-28 16:26 | 47.50670 | 15.24916 | 38005 ft | 504 kts | 307° |
| 2026-04-28 16:26 | 47.54878 | 15.16687 | 38001 ft | 504 kts | 307° |
| 2026-04-28 16:27 | 47.59102 | 15.08401 | 37999 ft | 504 kts | 307° |
| 2026-04-28 16:28 | 47.65433 | 14.95934 | 37999 ft | 504 kts | 307° |
| 2026-04-28 16:28 | 47.69104 | 14.88681 | 38002 ft | 504 kts | 306° |
| 2026-04-28 16:29 | 47.75409 | 14.76176 | 37998 ft | 504 kts | 306° |
| 2026-04-28 16:30 | 47.81702 | 14.63638 | 38004 ft | 504 kts | 306° |
| 2026-04-28 16:30 | 47.85891 | 14.55260 | 37999 ft | 504 kts | 306° |
| 2026-04-28 16:31 | 47.90153 | 14.47041 | 38002 ft | 504 kts | 311° |
| 2026-04-28 16:31 | 47.95231 | 14.39844 | 37998 ft | 505 kts | 321° |
| 2026-04-28 16:32 | 48.00818 | 14.33480 | 38004 ft | 505 kts | 323° |
| 2026-04-28 16:32 | 48.09225 | 14.23963 | 38001 ft | 505 kts | 322° |
| 2026-04-28 16:33 | 48.13851 | 14.18635 | 38001 ft | 505 kts | 322° |
| 2026-04-28 16:33 | 48.20347 | 14.11099 | 38002 ft | 505 kts | 322° |
| 2026-04-28 16:34 | 48.25905 | 14.04633 | 38002 ft | 505 kts | 322° |
| 2026-04-28 16:34 | 48.31456 | 13.98160 | 38000 ft | 505 kts | 322° |
| 2026-04-28 16:35 | 48.36963 | 13.91722 | 38003 ft | 505 kts | 322° |
| 2026-04-28 16:35 | 48.42516 | 13.85213 | 38000 ft | 505 kts | 322° |
| 2026-04-28 16:36 | 48.48049 | 13.78706 | 38005 ft | 505 kts | 321° |
| 2026-04-28 16:36 | 48.53589 | 13.72174 | 38000 ft | 505 kts | 321° |
| 2026-04-28 16:37 | 48.59118 | 13.65636 | 38000 ft | 505 kts | 321° |
| 2026-04-28 16:38 | 48.67269 | 13.55546 | 38004 ft | 504 kts | 316° |
| 2026-04-28 16:38 | 48.72247 | 13.48050 | 38000 ft | 505 kts | 314° |
| 2026-04-28 16:39 | 48.77194 | 13.40501 | 38003 ft | 505 kts | 315° |
| 2026-04-28 16:39 | 48.82174 | 13.32989 | 38001 ft | 505 kts | 315° |
| 2026-04-28 16:40 | 48.87155 | 13.25483 | 38001 ft | 505 kts | 315° |
| 2026-04-28 16:40 | 48.92127 | 13.17949 | 38002 ft | 505 kts | 315° |
| 2026-04-28 16:41 | 48.97088 | 13.10394 | 38001 ft | 505 kts | 314° |
| 2026-04-28 16:41 | 49.02015 | 13.02869 | 38002 ft | 505 kts | 314° |
| 2026-04-28 16:42 | 49.06970 | 12.95280 | 38001 ft | 505 kts | 314° |
| 2026-04-28 16:42 | 49.11919 | 12.87678 | 38002 ft | 505 kts | 314° |
| 2026-04-28 16:43 | 49.16870 | 12.80050 | 38001 ft | 505 kts | 314° |
| 2026-04-28 16:43 | 49.21812 | 12.72414 | 38002 ft | 505 kts | 314° |
| 2026-04-28 16:44 | 49.26746 | 12.64765 | 38001 ft | 505 kts | 314° |
| 2026-04-28 16:44 | 49.31635 | 12.57155 | 38001 ft | 505 kts | 313° |
| 2026-04-28 16:45 | 49.35997 | 12.48750 | 37998 ft | 504 kts | 303° |
| 2026-04-28 16:45 | 49.39764 | 12.39692 | 38003 ft | 504 kts | 302° |
| 2026-04-28 16:46 | 49.43505 | 12.30576 | 38000 ft | 504 kts | 302° |
| 2026-04-28 16:46 | 49.47269 | 12.21492 | 38003 ft | 504 kts | 302° |
| 2026-04-28 16:47 | 49.51051 | 12.12401 | 38001 ft | 504 kts | 302° |
| 2026-04-28 16:47 | 49.54828 | 12.03307 | 38001 ft | 504 kts | 302° |
| 2026-04-28 16:48 | 49.58595 | 11.94197 | 38003 ft | 504 kts | 302° |
| 2026-04-28 16:48 | 49.62363 | 11.85048 | 38000 ft | 504 kts | 302° |
| 2026-04-28 16:49 | 49.66113 | 11.75911 | 38002 ft | 504 kts | 302° |
| 2026-04-28 16:49 | 49.69857 | 11.66755 | 38001 ft | 504 kts | 302° |
| 2026-04-28 16:50 | 49.73575 | 11.57635 | 38001 ft | 504 kts | 302° |
| 2026-04-28 16:50 | 49.77305 | 11.48453 | 38001 ft | 504 kts | 302° |
| 2026-04-28 16:51 | 49.81028 | 11.39252 | 38001 ft | 504 kts | 302° |
| 2026-04-28 16:51 | 49.84745 | 11.30038 | 38002 ft | 504 kts | 301° |
| 2026-04-28 16:52 | 49.88454 | 11.20812 | 38000 ft | 504 kts | 301° |
| 2026-04-28 16:52 | 49.92154 | 11.11574 | 38002 ft | 504 kts | 301° |
| 2026-04-28 16:53 | 49.95840 | 11.02336 | 38002 ft | 504 kts | 301° |
| 2026-04-28 16:53 | 49.99532 | 10.93052 | 38001 ft | 504 kts | 301° |
| 2026-04-28 16:54 | 50.03210 | 10.83774 | 38000 ft | 504 kts | 301° |
| 2026-04-28 16:54 | 50.06952 | 10.74521 | 37998 ft | 504 kts | 305° |
| 2026-04-28 16:55 | 50.11459 | 10.66217 | 38002 ft | 504 kts | 314° |
| 2026-04-28 16:55 | 50.16389 | 10.58424 | 38003 ft | 504 kts | 314° |
| 2026-04-28 16:56 | 50.21197 | 10.50448 | 38001 ft | 504 kts | 312° |
| 2026-04-28 16:56 | 50.26030 | 10.42500 | 38000 ft | 505 kts | 314° |
| 2026-04-28 16:57 | 50.30936 | 10.34749 | 38002 ft | 505 kts | 314° |
| 2026-04-28 16:57 | 50.35803 | 10.26817 | 38002 ft | 504 kts | 310° |
| 2026-04-28 16:58 | 50.40387 | 10.18501 | 37996 ft | 505 kts | 314° |
| 2026-04-28 16:58 | 50.45332 | 10.10678 | 38002 ft | 505 kts | 313° |
| 2026-04-28 16:59 | 50.50076 | 10.02551 | 38001 ft | 505 kts | 311° |
| 2026-04-28 16:59 | 50.54801 | 9.94377 | 38002 ft | 505 kts | 311° |
| 2026-04-28 17:00 | 50.59314 | 9.85923 | 38008 ft | 504 kts | 308° |
| 2026-04-28 17:00 | 50.63711 | 9.77406 | 38000 ft | 505 kts | 309° |
| 2026-04-28 17:01 | 50.68191 | 9.68881 | 38001 ft | 505 kts | 309° |
| 2026-04-28 17:01 | 50.72640 | 9.60316 | 38002 ft | 505 kts | 309° |
| 2026-04-28 17:02 | 50.77106 | 9.51752 | 38000 ft | 505 kts | 309° |
| 2026-04-28 17:02 | 50.80821 | 9.44648 | 38001 ft | 505 kts | 309° |
| 2026-04-28 17:03 | 50.87517 | 9.31791 | 38000 ft | 505 kts | 309° |
| 2026-04-28 17:03 | 50.91969 | 9.23196 | 38001 ft | 504 kts | 309° |
| 2026-04-28 17:04 | 50.98635 | 9.10271 | 38001 ft | 504 kts | 309° |
| 2026-04-28 17:05 | 51.05295 | 8.97298 | 38000 ft | 504 kts | 309° |
| 2026-04-28 17:06 | 51.11898 | 8.84356 | 38000 ft | 504 kts | 309° |
| 2026-04-28 17:06 | 51.18514 | 8.71326 | 38002 ft | 504 kts | 308° |
| 2026-04-28 17:07 | 51.22914 | 8.62611 | 38001 ft | 504 kts | 308° |
| 2026-04-28 17:07 | 51.27305 | 8.53871 | 38001 ft | 504 kts | 308° |
| 2026-04-28 17:08 | 51.31691 | 8.45120 | 37999 ft | 504 kts | 308° |
| 2026-04-28 17:08 | 51.36083 | 8.36373 | 38002 ft | 504 kts | 308° |
| 2026-04-28 17:09 | 51.40488 | 8.27620 | 38000 ft | 504 kts | 308° |
| 2026-04-28 17:09 | 51.44886 | 8.18853 | 38001 ft | 504 kts | 308° |
| 2026-04-28 17:10 | 51.49274 | 8.10066 | 38001 ft | 504 kts | 308° |
| 2026-04-28 17:10 | 51.53629 | 8.01309 | 38001 ft | 504 kts | 308° |
| 2026-04-28 17:11 | 51.57995 | 7.92501 | 38001 ft | 504 kts | 308° |
| 2026-04-28 17:11 | 51.62358 | 7.83671 | 37989 ft | 498 kts | 308° |
| 2026-04-28 17:12 | 51.66616 | 7.75023 | 37995 ft | 490 kts | 308° |
| 2026-04-28 17:12 | 51.70834 | 7.66427 | 38003 ft | 489 kts | 308° |
| 2026-04-28 17:13 | 51.75008 | 7.57892 | 38001 ft | 489 kts | 308° |
| 2026-04-28 17:13 | 51.79218 | 7.49255 | 38003 ft | 489 kts | 308° |
| 2026-04-28 17:14 | 51.83427 | 7.40590 | 38002 ft | 489 kts | 308° |
| 2026-04-28 17:14 | 51.87620 | 7.31930 | 37994 ft | 489 kts | 308° |
| 2026-04-28 17:15 | 51.89722 | 7.27578 | 37702 ft | 491 kts | 308° |
| 2026-04-28 17:15 | 51.91827 | 7.23212 | 36733 ft | 494 kts | 308° |
| 2026-04-28 17:15 | 51.93950 | 7.18801 | 35671 ft | 498 kts | 307° |
| 2026-04-28 17:15 | 51.96072 | 7.14382 | 34600 ft | 491 kts | 307° |
| 2026-04-28 17:16 | 51.98137 | 7.10086 | 33501 ft | 473 kts | 308° |
| 2026-04-28 17:16 | 52.00123 | 7.05946 | 32430 ft | 458 kts | 307° |
| 2026-04-28 17:16 | 52.02050 | 7.01917 | 31353 ft | 444 kts | 307° |
| 2026-04-28 17:16 | 52.03915 | 6.98005 | 30280 ft | 432 kts | 307° |
| 2026-04-28 17:17 | 52.05732 | 6.94186 | 29195 ft | 422 kts | 307° |
| 2026-04-28 17:17 | 52.07508 | 6.90455 | 28127 ft | 412 kts | 307° |
| 2026-04-28 17:17 | 52.09220 | 6.86855 | 27075 ft | 403 kts | 307° |
| 2026-04-28 17:17 | 52.10905 | 6.83275 | 26011 ft | 395 kts | 305° |
| 2026-04-28 17:18 | 52.12382 | 6.79567 | 24936 ft | 387 kts | 298° |
| 2026-04-28 17:18 | 52.13606 | 6.75711 | 23939 ft | 378 kts | 299° |
| 2026-04-28 17:18 | 52.15038 | 6.72213 | 23201 ft | 364 kts | 307° |
| 2026-04-28 17:18 | 52.16597 | 6.69055 | 22443 ft | 352 kts | 309° |
| 2026-04-28 17:19 | 52.17990 | 6.65835 | 21675 ft | 343 kts | 299° |
| 2026-04-28 17:19 | 52.19076 | 6.62428 | 20945 ft | 336 kts | 296° |
| 2026-04-28 17:19 | 52.20119 | 6.59032 | 20194 ft | 333 kts | 296° |
| 2026-04-28 17:19 | 52.21168 | 6.55598 | 19494 ft | 345 kts | 296° |
| 2026-04-28 17:20 | 52.22256 | 6.52039 | 18765 ft | 354 kts | 296° |
| 2026-04-28 17:20 | 52.22988 | 6.49649 | 18270 ft | 359 kts | 296° |
| 2026-04-28 17:20 | 52.24505 | 6.44714 | 17288 ft | 367 kts | 296° |
| 2026-04-28 17:20 | 52.25659 | 6.40963 | 16558 ft | 373 kts | 296° |
| 2026-04-28 17:21 | 52.26748 | 6.37124 | 15793 ft | 370 kts | 289° |
| 2026-04-28 17:21 | 52.27302 | 6.33159 | 15010 ft | 350 kts | 276° |
| 2026-04-28 17:21 | 52.27419 | 6.29344 | 14270 ft | 333 kts | 268° |
| 2026-04-28 17:22 | 52.27208 | 6.22061 | 12615 ft | 314 kts | 266° |
| 2026-04-28 17:22 | 52.27082 | 6.18520 | 11619 ft | 311 kts | 266° |
| 2026-04-28 17:22 | 52.26956 | 6.14978 | 10528 ft | 322 kts | 266° |
| 2026-04-28 17:23 | 52.26683 | 6.07120 | 9021 ft | 361 kts | 266° |
| 2026-04-28 17:23 | 52.26543 | 6.03020 | 8508 ft | 361 kts | 266° |
| 2026-04-28 17:23 | 52.26405 | 5.98939 | 8011 ft | 360 kts | 266° |
| 2026-04-28 17:23 | 52.26268 | 5.94869 | 7512 ft | 358 kts | 266° |
| 2026-04-28 17:24 | 52.26132 | 5.90838 | 7138 ft | 355 kts | 266° |
| 2026-04-28 17:24 | 52.25992 | 5.86768 | 7015 ft | 360 kts | 266° |
| 2026-04-28 17:24 | 52.25862 | 5.82980 | 6995 ft | 355 kts | 266° |
| 2026-04-28 17:24 | 52.25722 | 5.78972 | 6993 ft | 353 kts | 266° |
| 2026-04-28 17:25 | 52.25583 | 5.74977 | 6997 ft | 353 kts | 266° |
| 2026-04-28 17:25 | 52.25504 | 5.72741 | 7006 ft | 354 kts | 266° |
| 2026-04-28 17:25 | 52.25409 | 5.70072 | 7005 ft | 354 kts | 266° |
| 2026-04-28 17:26 | 52.25264 | 5.66052 | 7001 ft | 355 kts | 266° |
| 2026-04-28 17:26 | 52.25121 | 5.62082 | 7004 ft | 355 kts | 266° |
| 2026-04-28 17:26 | 52.24974 | 5.58063 | 6967 ft | 353 kts | 266° |
| 2026-04-28 17:26 | 52.24826 | 5.54061 | 6461 ft | 353 kts | 266° |
| 2026-04-28 17:27 | 52.24678 | 5.50080 | 5930 ft | 350 kts | 266° |
| 2026-04-28 17:27 | 52.24531 | 5.46144 | 5433 ft | 345 kts | 266° |
| 2026-04-28 17:27 | 52.24383 | 5.42234 | 5132 ft | 349 kts | 266° |
| 2026-04-28 17:27 | 52.24231 | 5.38272 | 5008 ft | 348 kts | 266° |
| 2026-04-28 17:28 | 52.24093 | 5.34701 | 5005 ft | 344 kts | 266° |
| 2026-04-28 17:28 | 52.23845 | 5.28335 | 4997 ft | 343 kts | 266° |
| 2026-04-28 17:28 | 52.23692 | 5.24439 | 5004 ft | 344 kts | 266° |
| 2026-04-28 17:29 | 52.23536 | 5.20537 | 5004 ft | 344 kts | 266° |
| 2026-04-28 17:29 | 52.23385 | 5.16696 | 4855 ft | 326 kts | 266° |
| 2026-04-28 17:29 | 52.23270 | 5.13717 | 4628 ft | 298 kts | 266° |
| 2026-04-28 17:30 | 52.23062 | 5.07931 | 3528 ft | 272 kts | 265° |
| 2026-04-28 17:30 | 52.22644 | 5.01883 | 2157 ft | 268 kts | 263° |
| 2026-04-28 17:30 | 52.22417 | 4.98896 | 1954 ft | 262 kts | 262° |
| 2026-04-28 17:31 | 52.22194 | 4.95958 | 1787 ft | 262 kts | 262° |
| 2026-04-28 17:31 | 52.21751 | 4.90144 | 1757 ft | 256 kts | 262° |
| 2026-04-28 17:32 | 52.21309 | 4.84390 | 1761 ft | 255 kts | 262° |
| 2026-04-28 17:32 | 52.21091 | 4.81553 | 1751 ft | 249 kts | 262° |
| 2026-04-28 17:32 | 52.20876 | 4.78762 | 1740 ft | 247 kts | 262° |
| 2026-04-28 17:32 | 52.20662 | 4.75986 | 1745 ft | 245 kts | 262° |
| 2026-04-28 17:33 | 52.20351 | 4.73284 | 1750 ft | 239 kts | 255° |
| 2026-04-28 17:33 | 52.19913 | 4.70834 | 1720 ft | 210 kts | 253° |
| 2026-04-28 17:33 | 52.19512 | 4.68688 | 1770 ft | 189 kts | 252° |
| 2026-04-28 17:33 | 52.19258 | 4.67341 | 1748 ft | 186 kts | 252° |
| 2026-04-28 17:34 | 52.18814 | 4.64990 | 1763 ft | 183 kts | 252° |
| 2026-04-28 17:34 | 52.18435 | 4.62996 | 1763 ft | 185 kts | 252° |
| 2026-04-28 17:34 | 52.18052 | 4.60985 | 1766 ft | 187 kts | 252° |
| 2026-04-28 17:34 | 52.17848 | 4.58923 | 1733 ft | 184 kts | 279° |
| 2026-04-28 17:35 | 52.18441 | 4.57144 | 1748 ft | 183 kts | 320° |
| 2026-04-28 17:35 | 52.19630 | 4.56411 | 1771 ft | 190 kts | 360° |
| 2026-04-28 17:35 | 52.20883 | 4.57038 | 1765 ft | 191 kts | 31° |
| 2026-04-28 17:35 | 52.22011 | 4.58193 | 1767 ft | 192 kts | 32° |
| 2026-04-28 17:36 | 52.23122 | 4.59414 | 1739 ft | 192 kts | 43° |
| 2026-04-28 17:36 | 52.23937 | 4.61041 | 1777 ft | 178 kts | 52° |
| 2026-04-28 17:36 | 52.24641 | 4.62649 | 1549 ft | 170 kts | 57° |
| 2026-04-28 17:36 | 52.25260 | 4.64238 | 1356 ft | 167 kts | 58° |
| 2026-04-28 17:37 | 52.25863 | 4.65804 | 1140 ft | 157 kts | 58° |
| 2026-04-28 17:37 | 52.26413 | 4.67238 | 946 ft | 145 kts | 58° |
| 2026-04-28 17:37 | 52.26957 | 4.68651 | 743 ft | 147 kts | 58° |
| 2026-04-28 17:37 | 52.27498 | 4.70059 | 554 ft | 146 kts | 58° |
| 2026-04-28 17:38 | 52.27983 | 4.71368 | 394 ft | 144 kts | 59° |
| 2026-04-28 17:38 | 52.28522 | 4.72764 | 210 ft | 146 kts | 57° |
| 2026-04-28 17:38 | 52.29065 | 4.74139 | 26 ft | 144 kts | 58° |
| 2026-04-28 17:38 | 52.29508 | 4.75278 | 3 ft | 122 kts | 58° |
| 2026-04-28 17:39 | 52.29795 | 4.76028 | 1 ft | 87 kts | 58° |
| 2026-04-28 17:39 | 52.30037 | 4.76658 | 3 ft | 60 kts | 58° |
| 2026-04-28 17:39 | 52.30283 | 4.77288 | 1 ft | 28 kts | 47° |
| 2026-04-28 17:40 | 52.30395 | 4.77385 | 2 ft | 7 kts | 26° |
| 2026-04-28 17:40 | 52.30440 | 4.77411 | 3 ft | 5 kts | 7° |
| 2026-04-28 17:40 | 52.30456 | 4.77409 | 3 ft | 2 kts | 353° |
| 2026-04-28 17:40 | 52.30470 | 4.77403 | 3 ft | 0 kts | 343° |
| 2026-04-28 17:41 | 52.30494 | 4.77391 | 4 ft | 7 kts | 354° |
| 2026-04-28 17:41 | 52.30525 | 4.77407 | 4 ft | 3 kts | 33° |
| 2026-04-28 17:41 | 52.30542 | 4.77434 | 4 ft | 4 kts | 53° |
| 2026-04-28 17:41 | 52.30563 | 4.77479 | 4 ft | 6 kts | 55° |
| 2026-04-28 17:42 | 52.30589 | 4.77539 | 4 ft | 7 kts | 49° |
| 2026-04-28 17:42 | 52.30617 | 4.77570 | 4 ft | 8 kts | 26° |
| 2026-04-28 17:42 | 52.30696 | 4.77590 | 4 ft | 9 kts | 4° |
| 2026-04-28 17:42 | 52.30766 | 4.77599 | 4 ft | 11 kts | 4° |
| 2026-04-28 17:43 | 52.30845 | 4.77606 | 4 ft | 12 kts | 2° |
| 2026-04-28 17:43 | 52.30931 | 4.77613 | 4 ft | 13 kts | 2° |
| 2026-04-28 17:43 | 52.31026 | 4.77620 | 4 ft | 14 kts | 2° |
| 2026-04-28 17:43 | 52.31124 | 4.77629 | 4 ft | 14 kts | 3° |
| 2026-04-28 17:44 | 52.31224 | 4.77637 | 4 ft | 14 kts | 1° |
| 2026-04-28 17:44 | 52.31288 | 4.77570 | 4 ft | 7 kts | 288° |
| 2026-04-28 17:44 | 52.31290 | 4.77488 | 4 ft | 8 kts | 271° |
| 2026-04-28 17:44 | 52.31292 | 4.77391 | 4 ft | 9 kts | 271° |
| 2026-04-28 17:45 | 52.31286 | 4.77298 | 5 ft | 7 kts | 243° |
| 2026-04-28 17:45 | 52.31250 | 4.77273 | 4 ft | 5 kts | 183° |
| 2026-04-28 17:45 | 52.31224 | 4.77270 | 4 ft | 1 kts | 183° |
| 2026-04-28 17:45 | 52.31220 | 4.77270 | 4 ft | 0 kts | 182° |